Terminal Aerodrome Forecast
Issued by NWS Central Illinois

Home | Current Version | Previous Version | Text Only | Print | Product List | Glossary On
Versions: 1 2 3 4 5 6 7 8 9 10 11 12 13 14
000
FTUS43 KILX 241732
TAFSPI
TAF
KSPI 241732Z 2418/2518 18015G25KT P6SM VCTS SCT040CB BKN060
     FM242300 17015G22KT P6SM SCT050 BKN080
     FM250400 16015G22KT 5SM -SHRA VCTS BKN025CB
     FM251500 23014G22KT P6SM SCT035 BKN250=

USA.gov is the U.S. government's official web portal to all federal, state and local government web resources and services.